Time;durP1;ratioP1;P1;durP2;ratioP2;P2;SDS_P1;SDS_P2;PMS_P1;PMS_P2;Temp;Humidity;BMP_temperature;BMP_pressure;BME280_temperature;BME280_humidity;BME280_pressure;Samples;Min_cycle;Max_cycle;Signal;HPM_P1;HPM_P2
2021/03/15 00:00:33;;;;;;;0.93;0.50;;;4.50;99.90;;;;;;5157505;27;20541;-59
2021/03/15 00:03:00;;;;;;;1.30;0.50;;;4.50;99.90;;;;;;5156355;27;20496;-59
2021/03/15 00:05:26;;;;;;;0.80;0.50;;;4.40;99.90;;;;;;5157459;27;20548;-58
2021/03/15 00:07:54;;;;;;;0.80;0.40;;;4.40;99.90;;;;;;5157439;27;20792;-59
2021/03/15 00:10:20;;;;;;;0.90;0.50;;;4.40;99.90;;;;;;5158349;27;20924;-59
2021/03/15 00:12:46;;;;;;;0.90;0.50;;;4.40;99.90;;;;;;5157491;27;20417;-58
2021/03/15 00:15:18;;;;;;;0.80;0.50;;;4.40;99.90;;;;;;5158066;27;20465;-59
2021/03/15 00:17:46;;;;;;;0.90;0.50;;;4.40;99.90;;;;;;5158709;27;20504;-59
2021/03/15 00:20:15;;;;;;;1.10;0.50;;;4.30;99.90;;;;;;5159522;27;20416;-59
2021/03/15 00:22:42;;;;;;;1.67;0.50;;;4.30;99.90;;;;;;5157920;27;20427;-59
2021/03/15 00:25:11;;;;;;;0.80;0.50;;;4.30;99.90;;;;;;5158161;27;20420;-59
2021/03/15 00:27:39;;;;;;;2.40;0.60;;;4.20;99.90;;;;;;5158068;27;20416;-58
2021/03/15 00:30:07;;;;;;;1.85;0.60;;;4.20;99.90;;;;;;5159370;27;20523;-59
2021/03/15 00:32:33;;;;;;;2.93;0.60;;;4.10;99.90;;;;;;5159029;27;20417;-59
2021/03/15 00:35:00;;;;;;;1.55;0.50;;;4.20;99.90;;;;;;5159300;27;20423;-59
2021/03/15 00:37:27;;;;;;;0.88;0.50;;;4.10;99.90;;;;;;5158098;27;20511;-59
2021/03/15 00:39:54;;;;;;;1.60;0.50;;;4.10;99.90;;;;;;5158354;27;20423;-59
2021/03/15 00:42:21;;;;;;;1.38;0.50;;;4.00;99.90;;;;;;5157338;27;20443;-58
2021/03/15 00:44:47;;;;;;;0.80;0.50;;;4.00;99.90;;;;;;5157454;27;20477;-59
2021/03/15 00:47:14;;;;;;;0.80;0.50;;;4.00;99.90;;;;;;5157062;27;20772;-59
2021/03/15 00:49:40;;;;;;;1.20;0.60;;;3.90;99.90;;;;;;5157930;27;20711;-59
2021/03/15 00:52:07;;;;;;;1.00;0.60;;;3.90;99.90;;;;;;5158186;27;20511;-59
2021/03/15 00:54:33;;;;;;;1.10;0.60;;;3.90;99.90;;;;;;5156616;27;20481;-57
2021/03/15 00:56:59;;;;;;;1.00;0.50;;;3.90;99.90;;;;;;5158074;27;20435;-59
2021/03/15 00:59:27;;;;;;;1.30;0.50;;;4.00;99.90;;;;;;5157699;27;20425;-59
2021/03/15 01:01:53;;;;;;;1.85;0.50;;;4.00;99.90;;;;;;5157555;27;20512;-59
2021/03/15 01:04:19;;;;;;;0.80;0.60;;;4.00;99.90;;;;;;5157642;27;20843;-59
2021/03/15 01:06:46;;;;;;;1.02;0.50;;;4.00;99.90;;;;;;5157216;27;20408;-59
2021/03/15 01:09:13;;;;;;;0.80;0.50;;;4.00;99.90;;;;;;5156975;27;20433;-59
2021/03/15 01:11:40;;;;;;;1.10;0.70;;;3.90;99.90;;;;;;5156218;27;20420;-59
2021/03/15 01:14:07;;;;;;;0.88;0.50;;;3.80;99.90;;;;;;5156706;27;20427;-58
2021/03/15 01:16:35;;;;;;;1.10;0.60;;;3.70;99.90;;;;;;5156558;27;20512;-58
2021/03/15 01:19:01;;;;;;;1.75;0.60;;;3.60;99.90;;;;;;5155838;27;20507;-59
2021/03/15 01:21:28;;;;;;;1.20;0.60;;;3.60;99.90;;;;;;5157565;27;20507;-59
2021/03/15 01:23:54;;;;;;;1.10;0.63;;;3.50;99.90;;;;;;5157756;27;20564;-57
2021/03/15 01:26:21;;;;;;;1.30;0.70;;;3.50;99.90;;;;;;5158814;27;20401;-58
2021/03/15 01:28:47;;;;;;;1.70;0.65;;;3.50;99.90;;;;;;5157321;27;20417;-58
2021/03/15 01:31:14;;;;;;;1.00;0.60;;;3.50;99.90;;;;;;5157261;27;20416;-59
2021/03/15 01:33:42;;;;;;;1.13;0.70;;;3.50;99.90;;;;;;5156859;27;20417;-59
2021/03/15 01:36:08;;;;;;;1.20;0.65;;;3.50;99.90;;;;;;5156090;27;20424;-59
2021/03/15 01:38:36;;;;;;;1.58;0.65;;;3.50;99.90;;;;;;5136243;27;21035;-58
2021/03/15 01:41:03;;;;;;;1.60;0.60;;;3.50;99.90;;;;;;5136776;27;20733;-58
2021/03/15 01:43:29;;;;;;;1.70;0.60;;;3.40;99.90;;;;;;5156863;27;20423;-59
2021/03/15 01:45:56;;;;;;;2.00;0.65;;;3.40;99.90;;;;;;5157482;27;20424;-60
2021/03/15 01:48:22;;;;;;;1.20;0.70;;;3.40;99.90;;;;;;5157185;27;20411;-57
2021/03/15 01:50:51;;;;;;;1.13;0.50;;;3.40;99.90;;;;;;5156997;27;20421;-58
2021/03/15 01:53:19;;;;;;;1.38;0.70;;;3.40;99.90;;;;;;5157275;27;20838;-58
2021/03/15 01:55:46;;;;;;;1.00;0.60;;;3.30;99.90;;;;;;5156771;27;20481;-59
2021/03/15 01:58:13;;;;;;;1.08;0.63;;;3.30;99.90;;;;;;5157218;27;20600;-58
2021/03/15 02:00:40;;;;;;;1.05;0.70;;;3.30;99.90;;;;;;5156114;27;20431;-59
2021/03/15 02:03:08;;;;;;;1.10;0.70;;;3.40;99.90;;;;;;5156217;27;20452;-59
2021/03/15 02:05:36;;;;;;;1.92;0.80;;;3.40;99.90;;;;;;5155985;27;20957;-58
2021/03/15 02:08:05;;;;;;;0.90;0.60;;;3.40;99.90;;;;;;5155995;27;20417;-59
2021/03/15 02:10:32;;;;;;;4.80;0.70;;;3.40;99.90;;;;;;5155137;27;20475;-58
2021/03/15 02:13:35;;;;;;;1.00;0.60;;;3.30;99.90;;;;;;5155820;27;20839;-58
2021/03/15 02:16:06;;;;;;;2.10;0.70;;;3.30;99.90;;;;;;5129866;27;20425;-58
2021/03/15 02:18:51;;;;;;;1.10;0.60;;;3.20;99.90;;;;;;5155715;27;20759;-58
2021/03/15 02:21:53;;;;;;;1.17;0.70;;;3.20;99.90;;;;;;5156869;27;20424;-59
2021/03/15 02:24:26;;;;;;;1.30;0.70;;;3.20;99.90;;;;;;5136197;27;20494;-59
2021/03/15 02:27:52;;;;;;;1.52;0.60;;;3.10;99.90;;;;;;5139357;27;20424;-58
2021/03/15 02:30:51;;;;;;;3.35;0.70;;;3.20;99.90;;;;;;5093137;28;20422;-59
2021/03/15 02:34:06;;;;;;;1.80;0.60;;;3.30;99.90;;;;;;5156369;27;20409;-58
2021/03/15 02:36:38;;;;;;;2.13;0.60;;;3.40;99.90;;;;;;5072565;28;20903;-59
2021/03/15 02:39:09;;;;;;;1.40;0.60;;;3.40;99.90;;;;;;5130014;27;20493;-58
2021/03/15 02:41:37;;;;;;;2.40;0.60;;;3.50;99.90;;;;;;5136206;27;20904;-59
2021/03/15 02:44:08;;;;;;;1.40;0.50;;;3.60;99.90;;;;;;5155795;27;20514;-58
2021/03/15 02:46:36;;;;;;;0.80;0.50;;;3.60;99.90;;;;;;5156551;27;20412;-59
2021/03/15 02:49:08;;;;;;;0.98;0.60;;;3.70;99.90;;;;;;5154561;27;20421;-58
2021/03/15 02:51:38;;;;;;;1.67;0.60;;;3.70;99.90;;;;;;5155412;27;20485;-58
2021/03/15 02:54:06;;;;;;;0.90;0.60;;;3.70;99.90;;;;;;5154680;27;20416;-59
2021/03/15 02:56:35;;;;;;;1.23;0.60;;;3.60;99.90;;;;;;5155637;27;20424;-58
2021/03/15 02:59:04;;;;;;;3.10;0.60;;;3.70;99.90;;;;;;5156074;27;20433;-59
2021/03/15 03:01:33;;;;;;;2.30;0.60;;;3.70;99.90;;;;;;5156109;27;20421;-58
2021/03/15 03:04:00;;;;;;;1.48;0.50;;;3.70;99.90;;;;;;5155992;27;20425;-58
2021/03/15 03:06:31;;;;;;;1.48;0.60;;;3.70;99.90;;;;;;5156533;27;20420;-58
2021/03/15 03:09:00;;;;;;;3.20;0.52;;;3.70;99.90;;;;;;5155677;27;20918;-59
2021/03/15 03:11:29;;;;;;;2.53;0.60;;;3.60;99.90;;;;;;5154901;27;20420;-56
2021/03/15 03:13:56;;;;;;;1.80;0.60;;;3.60;99.90;;;;;;5156564;27;20484;-59
2021/03/15 03:16:28;;;;;;;1.00;0.70;;;3.60;99.90;;;;;;5155867;27;20424;-59
2021/03/15 03:18:55;;;;;;;2.22;0.60;;;3.50;99.90;;;;;;5156292;27;20523;-58
2021/03/15 03:21:23;;;;;;;1.40;0.70;;;3.50;99.90;;;;;;5156169;27;20472;-58
2021/03/15 03:23:53;;;;;;;1.20;0.60;;;3.50;99.90;;;;;;5156148;27;20416;-59
2021/03/15 03:26:24;;;;;;;1.50;0.60;;;3.50;99.90;;;;;;5157824;27;20499;-58
2021/03/15 03:28:53;;;;;;;1.50;0.60;;;3.40;99.90;;;;;;5160246;27;21205;-58
2021/03/15 03:31:20;;;;;;;2.00;0.60;;;3.40;99.90;;;;;;5159976;27;20960;-58
2021/03/15 03:33:48;;;;;;;1.35;0.60;;;3.50;99.90;;;;;;5160765;27;20812;-58
2021/03/15 03:36:15;;;;;;;2.60;0.60;;;3.50;99.90;;;;;;5159986;27;20485;-58
2021/03/15 03:38:42;;;;;;;1.00;0.50;;;3.60;99.90;;;;;;5159855;27;20413;-59
2021/03/15 03:41:10;;;;;;;1.10;0.57;;;3.60;99.90;;;;;;5159029;27;20420;-58
2021/03/15 03:43:38;;;;;;;1.70;0.60;;;3.60;99.90;;;;;;5160502;27;20453;-58
2021/03/15 03:46:05;;;;;;;1.20;0.60;;;3.80;99.90;;;;;;5159704;27;20412;-58
2021/03/15 03:48:32;;;;;;;2.30;0.60;;;3.80;99.90;;;;;;5159806;27;20734;-58
2021/03/15 03:50:59;;;;;;;2.42;0.60;;;3.70;99.90;;;;;;5159769;27;20765;-59
2021/03/15 03:53:28;;;;;;;1.10;0.50;;;3.80;99.90;;;;;;5159655;27;20420;-59
2021/03/15 03:55:58;;;;;;;1.60;0.52;;;3.80;99.90;;;;;;5159538;27;20428;-59
2021/03/15 03:58:25;;;;;;;1.63;0.55;;;3.80;99.90;;;;;;5159860;27;20412;-57
2021/03/15 04:00:53;;;;;;;1.80;0.60;;;3.80;99.90;;;;;;5159232;27;20422;-59
2021/03/15 04:03:22;;;;;;;1.40;0.50;;;3.90;99.90;;;;;;5159788;27;20473;-57
2021/03/15 04:05:51;;;;;;;2.40;0.55;;;3.80;99.90;;;;;;5159648;27;20427;-59
2021/03/15 04:08:23;;;;;;;0.80;0.50;;;3.80;99.90;;;;;;5159323;27;20851;-59
2021/03/15 04:10:52;;;;;;;1.20;0.50;;;3.80;99.90;;;;;;5159176;27;20432;-58
2021/03/15 04:13:23;;;;;;;1.60;0.50;;;3.80;99.90;;;;;;5159593;27;20419;-60
2021/03/15 04:15:49;;;;;;;2.00;0.50;;;3.70;99.90;;;;;;5159441;27;20430;-58
2021/03/15 04:18:21;;;;;;;0.80;0.50;;;3.70;99.90;;;;;;5159441;27;20504;-59
2021/03/15 04:20:54;;;;;;;1.70;0.50;;;3.70;99.90;;;;;;5158365;27;20793;-58
2021/03/15 04:23:26;;;;;;;0.90;0.50;;;3.70;99.90;;;;;;5158698;27;20417;-59
2021/03/15 04:25:54;;;;;;;0.80;0.50;;;3.80;99.90;;;;;;5157979;27;20541;-59
2021/03/15 04:28:21;;;;;;;1.27;0.70;;;3.80;99.90;;;;;;5158749;27;20412;-59
2021/03/15 04:30:49;;;;;;;1.35;0.50;;;3.80;99.90;;;;;;5159257;27;20500;-59
2021/03/15 04:33:17;;;;;;;1.15;0.50;;;3.80;99.90;;;;;;5158124;27;20512;-60
2021/03/15 04:35:44;;;;;;;2.00;0.50;;;3.80;99.90;;;;;;5158634;27;20431;-57
2021/03/15 04:38:12;;;;;;;0.90;0.40;;;3.80;99.90;;;;;;5157379;27;20421;-58
2021/03/15 04:40:41;;;;;;;2.17;0.60;;;3.90;99.90;;;;;;5159306;27;20425;-59
2021/03/15 04:43:09;;;;;;;2.20;0.50;;;4.00;99.90;;;;;;5158193;27;20563;-58
2021/03/15 04:45:43;;;;;;;0.80;0.50;;;4.00;99.90;;;;;;5159032;27;20735;-58
2021/03/15 04:48:11;;;;;;;1.20;0.47;;;4.00;99.90;;;;;;5158406;27;20439;-58
2021/03/15 04:50:39;;;;;;;1.50;0.40;;;3.90;99.90;;;;;;5159026;27;20600;-57
2021/03/15 04:53:07;;;;;;;0.70;0.45;;;3.90;99.90;;;;;;5158203;27;20430;-57
2021/03/15 04:55:34;;;;;;;1.00;0.50;;;3.80;99.90;;;;;;5158817;27;20835;-57
2021/03/15 04:58:05;;;;;;;0.80;0.50;;;3.80;99.90;;;;;;5157760;27;20424;-59
2021/03/15 05:00:32;;;;;;;1.83;0.50;;;3.80;99.90;;;;;;5158762;27;20726;-59
2021/03/15 05:03:02;;;;;;;1.20;0.40;;;3.90;99.90;;;;;;5157988;27;20840;-58
2021/03/15 05:05:30;;;;;;;0.80;0.50;;;3.90;99.90;;;;;;5158341;27;20425;-59
2021/03/15 05:07:58;;;;;;;1.40;0.60;;;3.90;99.90;;;;;;5156995;27;20413;-58
2021/03/15 05:10:26;;;;;;;1.30;0.40;;;4.00;99.90;;;;;;5158285;27;20568;-59
2021/03/15 05:12:53;;;;;;;1.75;0.50;;;4.10;99.90;;;;;;5157376;27;20457;-57
2021/03/15 05:15:19;;;;;;;1.42;0.40;;;4.00;99.90;;;;;;5157620;27;20467;-58
2021/03/15 05:17:47;;;;;;;1.55;0.40;;;4.00;99.90;;;;;;5156792;27;20427;-57
2021/03/15 05:20:16;;;;;;;0.70;0.50;;;3.90;99.90;;;;;;5156803;27;20460;-58
2021/03/15 05:22:42;;;;;;;0.90;0.43;;;3.90;99.90;;;;;;5156130;27;20424;-59
2021/03/15 05:25:12;;;;;;;1.42;0.50;;;3.80;99.90;;;;;;5156902;27;20424;-58
2021/03/15 05:27:39;;;;;;;1.40;0.50;;;3.70;99.90;;;;;;5156785;27;20773;-58
2021/03/15 05:30:08;;;;;;;1.42;0.50;;;3.70;99.90;;;;;;5156307;27;20429;-59
2021/03/15 05:32:37;;;;;;;0.80;0.50;;;3.70;99.90;;;;;;5157469;27;20413;-58
2021/03/15 05:35:06;;;;;;;0.80;0.50;;;3.70;99.90;;;;;;5157015;27;20429;-58
2021/03/15 05:37:33;;;;;;;1.70;0.50;;;3.70;99.90;;;;;;5156893;27;20463;-59
2021/03/15 05:39:59;;;;;;;0.95;0.40;;;3.60;99.90;;;;;;5155782;27;20424;-57
2021/03/15 05:42:41;;;;;;;0.98;0.50;;;3.60;99.90;;;;;;5156622;27;20409;-58
2021/03/15 05:45:26;;;;;;;0.93;0.50;;;3.70;99.90;;;;;;5157173;27;20432;-57
2021/03/15 05:48:19;;;;;;;0.80;0.50;;;3.70;99.90;;;;;;5156901;27;20405;-57
2021/03/15 05:51:14;;;;;;;2.10;0.60;;;3.80;99.90;;;;;;5122830;27;20431;-58
2021/03/15 05:54:23;;;;;;;1.35;0.50;;;3.80;99.90;;;;;;5157373;27;20428;-58
2021/03/15 05:57:05;;;;;;;1.67;0.50;;;3.80;99.90;;;;;;5136320;27;20426;-58
2021/03/15 06:00:00;;;;;;;0.85;0.40;;;3.70;99.90;;;;;;5150170;27;20425;-58
2021/03/15 06:02:48;;;;;;;1.08;0.50;;;3.70;99.90;;;;;;5156940;27;20420;-58
2021/03/15 06:05:19;;;;;;;1.00;0.50;;;3.70;99.90;;;;;;5156408;27;20472;-58
2021/03/15 06:07:47;;;;;;;0.90;0.50;;;3.70;99.90;;;;;;5156391;27;20417;-58
2021/03/15 06:10:23;;;;;;;0.77;0.40;;;3.70;99.90;;;;;;5155716;27;20508;-59
2021/03/15 06:12:54;;;;;;;0.73;0.40;;;3.70;99.90;;;;;;5155957;27;20428;-59
2021/03/15 06:15:33;;;;;;;0.70;0.50;;;3.70;99.90;;;;;;5156221;27;20694;-58
2021/03/15 06:18:03;;;;;;;0.70;0.40;;;3.70;99.90;;;;;;5155647;27;20429;-59
2021/03/15 06:20:29;;;;;;;0.95;0.50;;;3.80;99.90;;;;;;5154901;27;20731;-58
2021/03/15 06:22:58;;;;;;;1.27;0.60;;;3.90;99.90;;;;;;5154004;27;20417;-59
2021/03/15 06:25:25;;;;;;;0.90;0.50;;;3.90;99.90;;;;;;5154431;27;20700;-59
2021/03/15 06:27:51;;;;;;;0.82;0.50;;;3.90;99.90;;;;;;5153414;27;20465;-59
2021/03/15 06:30:19;;;;;;;1.15;0.55;;;3.80;99.90;;;;;;5154042;27;20866;-58
2021/03/15 06:32:49;;;;;;;1.30;0.50;;;3.80;99.90;;;;;;5155446;27;20444;-60
2021/03/15 06:35:17;;;;;;;1.40;0.50;;;3.80;99.90;;;;;;5152782;27;20500;-60
2021/03/15 06:37:44;;;;;;;0.80;0.50;;;3.80;99.90;;;;;;5153705;27;20507;-59
2021/03/15 06:40:13;;;;;;;1.30;0.50;;;3.70;99.90;;;;;;5154707;27;20421;-58
2021/03/15 06:42:41;;;;;;;2.33;0.45;;;3.70;99.90;;;;;;5153935;27;20450;-59
2021/03/15 06:45:12;;;;;;;0.80;0.50;;;3.70;99.90;;;;;;5152970;27;20431;-59
2021/03/15 06:47:40;;;;;;;0.93;0.43;;;3.70;99.90;;;;;;5151850;27;20441;-59
2021/03/15 06:50:09;;;;;;;1.10;0.60;;;3.80;99.90;;;;;;5152911;27;20425;-59
2021/03/15 06:53:00;;;;;;;0.70;0.40;;;4.00;99.90;;;;;;5153307;27;20423;-58
2021/03/15 06:55:30;;;;;;;0.80;0.40;;;4.00;99.90;;;;;;5137670;27;20439;-58
2021/03/15 06:57:56;;;;;;;1.10;0.50;;;4.10;99.90;;;;;;5153001;27;20511;-59
2021/03/15 07:00:24;;;;;;;0.88;0.40;;;4.10;99.90;;;;;;5151776;27;21043;-57
2021/03/15 07:03:02;;;;;;;0.60;0.40;;;4.20;99.90;;;;;;5151484;27;20463;-57
2021/03/15 07:05:31;;;;;;;0.75;0.40;;;4.20;99.90;;;;;;5137479;27;20745;-56
2021/03/15 07:07:59;;;;;;;0.60;0.40;;;4.30;99.90;;;;;;5143996;27;20420;-58
2021/03/15 07:10:26;;;;;;;0.70;0.30;;;4.20;99.90;;;;;;5142740;27;20431;-55
2021/03/15 07:13:09;;;;;;;0.90;0.30;;;4.30;99.90;;;;;;5152518;27;20423;-57
2021/03/15 07:15:35;;;;;;;0.77;0.30;;;4.30;99.90;;;;;;5151806;27;20543;-56
2021/03/15 07:18:13;;;;;;;0.60;0.40;;;4.30;99.90;;;;;;5152822;27;20679;-56
2021/03/15 07:20:42;;;;;;;0.77;0.30;;;4.40;99.90;;;;;;5152309;27;20425;-56
2021/03/15 07:23:09;;;;;;;0.80;0.40;;;4.50;99.90;;;;;;5153423;27;20716;-56
2021/03/15 07:25:35;;;;;;;0.70;0.40;;;4.50;99.90;;;;;;5144552;27;20533;-56
2021/03/15 07:28:02;;;;;;;1.20;0.40;;;4.50;99.90;;;;;;5153382;27;20408;-54
2021/03/15 07:30:31;;;;;;;1.20;0.30;;;4.50;99.90;;;;;;5153221;27;20923;-54
2021/03/15 07:33:00;;;;;;;0.60;0.30;;;4.50;99.90;;;;;;5151340;27;20416;-55
2021/03/15 07:35:28;;;;;;;0.70;0.30;;;4.40;99.90;;;;;;5152072;27;20428;-54
2021/03/15 07:37:56;;;;;;;0.60;0.30;;;4.40;99.90;;;;;;5150753;27;20428;-55
2021/03/15 07:40:35;;;;;;;0.57;0.30;;;4.10;99.90;;;;;;5151418;27;20417;-55
2021/03/15 07:43:03;;;;;;;0.95;0.30;;;4.00;99.90;;;;;;5150393;27;20486;-52
2021/03/15 07:45:35;;;;;;;0.47;0.20;;;3.80;99.90;;;;;;5153131;27;20877;-53
2021/03/15 07:48:09;;;;;;;0.50;0.30;;;3.70;99.90;;;;;;5151884;27;20492;-51
2021/03/15 07:50:37;;;;;;;0.40;0.20;;;3.60;99.90;;;;;;5150442;27;20482;-47
2021/03/15 07:53:04;;;;;;;0.40;0.20;;;3.50;99.90;;;;;;5149563;27;20487;-47
2021/03/15 07:55:35;;;;;;;0.60;0.28;;;3.60;99.90;;;;;;5150333;27;20740;-51
2021/03/15 07:58:01;;;;;;;0.47;0.20;;;3.60;99.90;;;;;;5149798;27;20435;-51
2021/03/15 08:00:31;;;;;;;0.60;0.30;;;3.70;99.90;;;;;;5140378;27;20436;-50
2021/03/15 08:02:58;;;;;;;0.30;0.20;;;3.70;99.90;;;;;;5152528;27;20493;-51
2021/03/15 08:05:24;;;;;;;0.60;0.30;;;3.80;99.90;;;;;;5146043;27;20417;-52
2021/03/15 08:07:51;;;;;;;0.60;0.30;;;3.80;99.90;;;;;;5150591;27;20613;-52
2021/03/15 08:10:18;;;;;;;0.70;0.30;;;3.90;99.90;;;;;;5144925;27;20460;-53
2021/03/15 08:12:47;;;;;;;0.50;0.20;;;3.90;99.90;;;;;;5147063;27;20651;-54
2021/03/15 08:15:14;;;;;;;0.90;0.20;;;3.90;99.90;;;;;;5144842;27;20827;-54
2021/03/15 08:17:43;;;;;;;0.50;0.20;;;4.10;99.90;;;;;;5151713;27;20429;-53
2021/03/15 08:20:11;;;;;;;1.00;0.20;;;4.20;99.90;;;;;;5153118;27;20429;-53
2021/03/15 08:22:39;;;;;;;0.60;0.20;;;4.30;99.90;;;;;;5155305;27;20469;-55
2021/03/15 08:25:08;;;;;;;0.50;0.30;;;4.30;99.90;;;;;;5154777;27;20930;-54
2021/03/15 08:27:40;;;;;;;1.30;0.40;;;4.30;99.90;;;;;;5154572;27;20409;-53
2021/03/15 08:30:09;;;;;;;0.70;0.30;;;4.50;99.90;;;;;;5141096;27;20424;-54
2021/03/15 08:32:40;;;;;;;0.57;0.30;;;4.60;99.90;;;;;;5151427;27;20422;-54
2021/03/15 08:35:08;;;;;;;0.50;0.25;;;4.80;99.90;;;;;;5146924;27;20428;-52
2021/03/15 08:37:58;;;;;;;0.50;0.20;;;4.90;99.90;;;;;;5157793;27;20425;-54
2021/03/15 08:40:58;;;;;;;0.40;0.20;;;5.00;99.90;;;;;;5157111;27;20725;-57
2021/03/15 08:43:46;;;;;;;0.50;0.20;;;5.00;99.90;;;;;;5157468;27;20413;-55
2021/03/15 08:46:16;;;;;;;0.50;0.20;;;4.90;99.90;;;;;;5158103;27;20511;-55
2021/03/15 08:48:59;;;;;;;0.40;0.20;;;4.80;99.90;;;;;;5155985;27;20417;-55
2021/03/15 08:51:49;;;;;;;1.00;0.30;;;4.90;99.90;;;;;;5154534;27;20420;-53
2021/03/15 08:54:36;;;;;;;1.30;0.20;;;4.90;99.90;;;;;;5154727;27;20429;-51
2021/03/15 08:57:04;;;;;;;0.40;0.20;;;4.80;99.90;;;;;;5154779;27;20428;-55
2021/03/15 08:59:33;;;;;;;0.80;0.40;;;4.80;99.90;;;;;;5154550;27;20434;-54
2021/03/15 09:02:03;;;;;;;1.10;0.40;;;4.90;99.90;;;;;;5148358;27;20494;-51
2021/03/15 09:04:42;;;;;;;0.40;0.20;;;5.00;99.90;;;;;;5154502;27;20424;-55
2021/03/15 09:07:40;;;;;;;0.50;0.20;;;4.90;99.90;;;;;;5154118;27;20464;-54
2021/03/15 09:10:43;;;;;;;0.40;0.20;;;4.90;99.90;;;;;;5154702;27;20432;-54
2021/03/15 09:13:36;;;;;;;0.47;0.20;;;5.00;99.90;;;;;;5147867;27;20560;-53
2021/03/15 09:16:08;;;;;;;0.40;0.20;;;5.40;99.90;;;;;;5148819;27;20417;-57
2021/03/15 09:18:53;;;;;;;0.50;0.20;;;5.50;99.90;;;;;;5146994;27;20916;-57
2021/03/15 09:21:50;;;;;;;0.38;0.20;;;5.70;99.90;;;;;;5155209;27;20550;-58
2021/03/15 09:24:38;;;;;;;0.40;0.20;;;5.90;99.90;;;;;;5156405;27;20827;-58
2021/03/15 09:27:08;;;;;;;0.30;0.20;;;5.90;99.90;;;;;;5148188;27;20409;-56
2021/03/15 09:29:36;;;;;;;0.40;0.20;;;6.20;99.90;;;;;;5153475;27;20598;-56
2021/03/15 09:32:05;;;;;;;0.30;0.10;;;6.30;99.90;;;;;;5145280;27;20515;-57
2021/03/15 09:34:32;;;;;;;0.30;0.10;;;6.50;99.90;;;;;;5154066;27;20454;-58
2021/03/15 09:37:00;;;;;;;0.43;0.20;;;6.60;99.90;;;;;;5150356;27;20535;-58
2021/03/15 09:39:29;;;;;;;0.40;0.20;;;6.50;99.90;;;;;;5153352;27;20456;-57
2021/03/15 09:41:56;;;;;;;0.40;0.20;;;6.40;99.90;;;;;;5156686;27;20424;-52
2021/03/15 09:44:24;;;;;;;0.80;0.20;;;6.40;99.90;;;;;;5153520;27;20726;-58
2021/03/15 09:46:51;;;;;;;0.60;0.30;;;6.40;99.90;;;;;;5153720;27;20409;-59
2021/03/15 09:49:37;;;;;;;0.40;0.20;;;6.20;99.90;;;;;;5146514;27;20513;-58
2021/03/15 09:52:14;;;;;;;0.60;0.30;;;6.20;99.90;;;;;;5146229;27;20417;-55
2021/03/15 09:54:42;;;;;;;0.40;0.20;;;6.50;99.90;;;;;;5152684;27;20507;-54
2021/03/15 09:57:09;;;;;;;1.17;1.08;;;6.50;99.90;;;;;;5153191;27;20863;-54
2021/03/15 09:59:35;;;;;;;1.50;0.30;;;6.50;99.90;;;;;;5160570;27;20446;-57
2021/03/15 10:02:11;;;;;;;2.38;0.70;;;6.60;99.90;;;;;;5157393;27;20673;-60
2021/03/15 10:04:40;;;;;;;0.80;0.30;;;6.90;99.90;;;;;;5157392;27;20849;-56
2021/03/15 10:07:08;;;;;;;0.30;0.20;;;6.90;99.90;;;;;;5158264;27;20491;-56
2021/03/15 10:09:38;;;;;;;0.80;0.30;;;7.00;99.90;;;;;;5154769;27;20448;-57
2021/03/15 10:12:06;;;;;;;1.40;0.30;;;7.20;99.90;;;;;;5159475;27;20856;-58
2021/03/15 10:14:33;;;;;;;0.40;0.20;;;7.50;99.90;;;;;;5147081;27;20501;-58
2021/03/15 10:17:02;;;;;;;12.90;7.85;;;7.20;99.90;;;;;;5148796;27;20506;-59
2021/03/15 10:19:31;;;;;;;5.40;2.90;;;7.00;99.90;;;;;;5146780;27;20434;-59
2021/03/15 10:22:10;;;;;;;0.70;0.32;;;7.00;99.90;;;;;;5153752;27;20514;-58
2021/03/15 10:24:38;;;;;;;0.50;0.30;;;6.90;99.90;;;;;;5145613;27;20474;-58
2021/03/15 10:27:07;;;;;;;0.50;0.30;;;6.70;99.90;;;;;;5153721;27;20448;-58
2021/03/15 10:29:35;;;;;;;0.70;0.20;;;6.80;99.90;;;;;;5155100;27;20420;-57
2021/03/15 10:32:03;;;;;;;0.90;0.30;;;6.90;99.90;;;;;;5155196;27;20409;-58
2021/03/15 10:34:30;;;;;;;1.30;0.30;;;6.80;99.90;;;;;;5155689;27;20519;-58
2021/03/15 10:36:58;;;;;;;0.50;0.30;;;6.90;99.90;;;;;;5151976;27;20508;-59
2021/03/15 10:39:27;;;;;;;0.45;0.22;;;7.20;99.90;;;;;;5153265;27;20866;-58
2021/03/15 10:41:54;;;;;;;1.10;0.30;;;7.10;99.90;;;;;;5147370;27;20435;-58
2021/03/15 10:44:21;;;;;;;0.50;0.30;;;6.90;99.90;;;;;;5148154;27;20428;-59
2021/03/15 10:46:50;;;;;;;0.80;0.40;;;6.70;99.90;;;;;;5153551;27;20844;-58
2021/03/15 10:49:21;;;;;;;5.15;2.97;;;6.50;99.90;;;;;;5150283;27;20474;-59
2021/03/15 10:51:50;;;;;;;0.73;0.40;;;6.90;99.90;;;;;;5145981;27;20507;-60
2021/03/15 10:54:32;;;;;;;1.40;0.40;;;7.10;99.90;;;;;;5140222;27;20634;-59
2021/03/15 10:57:17;;;;;;;0.50;0.20;;;7.40;99.90;;;;;;5151654;27;20511;-59
2021/03/15 10:59:45;;;;;;;0.40;0.20;;;7.40;99.90;;;;;;5151822;27;20895;-59
2021/03/15 11:02:20;;;;;;;0.50;0.30;;;7.60;99.90;;;;;;5144567;27;20424;-60
2021/03/15 11:04:55;;;;;;;0.60;0.30;;;8.40;99.90;;;;;;5153689;27;20421;-61
2021/03/15 11:07:24;;;;;;;0.50;0.30;;;8.50;99.90;;;;;;5144417;27;20417;-60
2021/03/15 11:10:00;;;;;;;0.90;0.20;;;8.50;99.90;;;;;;5146805;27;20440;-60
2021/03/15 11:12:41;;;;;;;0.50;0.30;;;8.30;99.90;;;;;;5152280;27;20416;-61
2021/03/15 11:15:13;;;;;;;0.50;0.20;;;8.10;99.90;;;;;;5153426;27;20435;-59
2021/03/15 11:17:41;;;;;;;0.55;0.30;;;7.90;99.90;;;;;;5151701;27;20453;-59
2021/03/15 11:20:11;;;;;;;0.40;0.20;;;8.00;99.90;;;;;;5153249;27;20978;-60
2021/03/15 11:22:48;;;;;;;0.70;0.30;;;8.30;99.90;;;;;;5152375;27;20515;-59
2021/03/15 11:25:17;;;;;;;0.40;0.20;;;8.20;99.90;;;;;;5145503;27;20717;-62
2021/03/15 11:27:47;;;;;;;0.65;0.30;;;8.00;99.90;;;;;;5151627;27;20445;-60
2021/03/15 11:30:22;;;;;;;1.20;0.20;;;8.00;99.90;;;;;;5153982;27;20481;-61
2021/03/15 11:32:57;;;;;;;0.40;0.20;;;8.30;99.90;;;;;;5152385;27;20425;-60
2021/03/15 11:35:24;;;;;;;0.50;0.30;;;8.60;99.90;;;;;;5141639;27;20919;-60
2021/03/15 11:37:56;;;;;;;0.47;0.28;;;8.60;99.90;;;;;;5152887;27;20796;-60
2021/03/15 11:40:37;;;;;;;1.90;0.40;;;8.70;99.90;;;;;;5152394;27;20420;-60
2021/03/15 11:43:05;;;;;;;0.50;0.30;;;9.10;99.90;;;;;;5152260;27;20496;-62
2021/03/15 11:45:32;;;;;;;0.50;0.30;;;9.20;99.90;;;;;;5152481;27;20847;-60
2021/03/15 11:51:15;;;;;;;0.40;0.22;;;8.90;99.90;;;;;;5058577;28;20437;-61
2021/03/15 11:53:44;;;;;;;0.57;0.30;;;8.90;99.90;;;;;;5069152;28;20574;-61
2021/03/15 11:56:13;;;;;;;1.40;0.40;;;8.70;99.90;;;;;;5074487;28;20934;-61
2021/03/15 11:58:40;;;;;;;0.50;0.30;;;8.70;99.90;;;;;;5067456;28;20876;-61
2021/03/15 12:01:08;;;;;;;0.60;0.30;;;8.60;99.90;;;;;;5065616;28;20669;-61
2021/03/15 12:03:35;;;;;;;0.60;0.30;;;8.60;99.90;;;;;;5068243;28;20504;-61
2021/03/15 12:06:02;;;;;;;0.50;0.30;;;8.00;99.90;;;;;;5065946;28;20944;-60
2021/03/15 12:08:29;;;;;;;1.00;0.40;;;8.00;99.90;;;;;;5062519;28;20820;-60
2021/03/15 12:10:57;;;;;;;0.60;0.40;;;8.10;99.90;;;;;;5059325;28;20737;-59
2021/03/15 12:13:25;;;;;;;0.55;0.30;;;8.50;99.90;;;;;;5051249;28;20526;-61
2021/03/15 12:15:52;;;;;;;0.60;0.30;;;8.80;99.90;;;;;;5061977;28;20528;-61
2021/03/15 12:18:21;;;;;;;0.70;0.30;;;9.20;99.90;;;;;;5061550;28;20440;-61
2021/03/15 12:20:48;;;;;;;0.47;0.30;;;9.50;99.90;;;;;;5062081;28;20787;-60
2021/03/15 12:23:14;;;;;;;0.40;0.22;;;9.20;99.90;;;;;;5068657;28;20424;-61
2021/03/15 12:25:44;;;;;;;0.50;0.30;;;9.20;99.90;;;;;;5059337;28;20441;-61
2021/03/15 12:28:14;;;;;;;0.53;0.30;;;8.80;99.90;;;;;;5071802;28;20523;-61
2021/03/15 12:30:41;;;;;;;0.60;0.40;;;8.50;99.90;;;;;;5056429;28;20753;-61
2021/03/15 12:33:07;;;;;;;0.90;0.60;;;8.40;99.90;;;;;;5066909;28;20433;-61
2021/03/15 12:35:35;;;;;;;0.80;0.40;;;8.10;99.90;;;;;;5069945;28;20429;-61
2021/03/15 12:38:01;;;;;;;0.50;0.30;;;8.20;99.90;;;;;;5063225;28;20437;-61
2021/03/15 12:40:31;;;;;;;0.90;0.40;;;8.30;99.90;;;;;;5065323;28;20563;-61
2021/03/15 12:42:59;;;;;;;0.60;0.40;;;8.60;99.90;;;;;;5069941;28;20425;-60
2021/03/15 12:45:32;;;;;;;0.63;0.40;;;8.70;99.90;;;;;;5055507;28;20434;-60
2021/03/15 12:47:59;;;;;;;0.60;0.40;;;9.00;99.90;;;;;;5063379;28;20839;-61
2021/03/15 12:50:28;;;;;;;0.60;0.30;;;8.90;99.90;;;;;;5071564;28;20542;-61
2021/03/15 12:52:54;;;;;;;0.60;0.40;;;9.20;99.90;;;;;;5064646;28;20797;-61
2021/03/15 12:55:21;;;;;;;0.60;0.40;;;9.40;99.90;;;;;;5068264;28;20420;-60
2021/03/15 12:57:47;;;;;;;0.60;0.40;;;9.80;99.90;;;;;;5073741;28;20530;-61
2021/03/15 13:00:15;;;;;;;0.60;0.40;;;10.30;99.90;;;;;;5072333;28;20554;-61
2021/03/15 13:02:48;;;;;;;0.60;0.40;;;10.10;99.90;;;;;;5067408;28;20432;-61
2021/03/15 13:05:17;;;;;;;0.60;0.30;;;10.00;99.90;;;;;;5068214;28;20840;-60
2021/03/15 13:07:45;;;;;;;0.90;0.40;;;9.90;99.90;;;;;;5071853;28;20423;-59
2021/03/15 13:10:13;;;;;;;0.60;0.30;;;9.50;99.90;;;;;;5073551;28;20427;-59
2021/03/15 13:12:41;;;;;;;0.60;0.40;;;9.20;99.90;;;;;;5064317;28;20526;-60
2021/03/15 13:15:18;;;;;;;0.90;0.30;;;9.30;99.90;;;;;;5057309;28;20434;-60
2021/03/15 13:17:49;;;;;;;0.65;0.40;;;9.50;99.90;;;;;;5070808;28;21016;-60
2021/03/15 13:20:22;;;;;;;0.68;0.40;;;9.40;99.90;;;;;;5063844;28;20519;-61